Terminal Aerodrome Forecast
Issued by NWS

Home | Current Version | Previous Version | Text Only | Print | Product List | Glossary On
Versions: 1 2 3 4 5 6 7 8 9 10 11 12 13 14 15 16 17 18 19 20 21 22 23 24
000
FTUS45 KGJT 301739
TAFCNY
TAF
KCNY 301739Z 3018/3118 16005KT P6SM -RA SCT016 BKN025 OVC030
     FM310300 35004KT 3SM -RA BR OVC020
     FM310700 VRB02KT 1 1/2SM -RA OVC015=

USA.gov is the U.S. government's official web portal to all federal, state and local government web resources and services.